sensor_id;sensor_type;location;lat;lon;timestamp;temperature;humidity
31207;DHT22;17834;52.992;8.856;2024-02-21T00:01:22;9.30;99.90
31207;DHT22;17834;52.992;8.856;2024-02-21T00:03:47;9.30;99.90
31207;DHT22;17834;52.992;8.856;2024-02-21T00:06:13;9.30;99.90
31207;DHT22;17834;52.992;8.856;2024-02-21T00:08:38;9.30;99.90
31207;DHT22;17834;52.992;8.856;2024-02-21T00:11:04;9.30;99.90
31207;DHT22;17834;52.992;8.856;2024-02-21T00:13:30;9.30;99.90
31207;DHT22;17834;52.992;8.856;2024-02-21T00:15:55;9.30;99.90
31207;DHT22;17834;52.992;8.856;2024-02-21T00:18:21;9.30;99.90
31207;DHT22;17834;52.992;8.856;2024-02-21T00:20:46;9.30;99.90
31207;DHT22;17834;52.992;8.856;2024-02-21T00:23:12;9.30;99.90
31207;DHT22;17834;52.992;8.856;2024-02-21T00:25:37;9.30;99.90
31207;DHT22;17834;52.992;8.856;2024-02-21T00:28:03;9.30;99.90
31207;DHT22;17834;52.992;8.856;2024-02-21T00:30:29;9.30;99.90
31207;DHT22;17834;52.992;8.856;2024-02-21T00:32:54;9.30;99.90
31207;DHT22;17834;52.992;8.856;2024-02-21T00:35:20;9.30;99.90
31207;DHT22;17834;52.992;8.856;2024-02-21T00:37:45;9.30;99.90
31207;DHT22;17834;52.992;8.856;2024-02-21T00:40:11;9.30;99.90
31207;DHT22;17834;52.992;8.856;2024-02-21T00:42:37;9.30;99.90
31207;DHT22;17834;52.992;8.856;2024-02-21T00:45:02;9.20;99.90
31207;DHT22;17834;52.992;8.856;2024-02-21T00:47:28;9.30;99.90
31207;DHT22;17834;52.992;8.856;2024-02-21T00:49:53;9.30;99.90
31207;DHT22;17834;52.992;8.856;2024-02-21T00:52:20;9.30;99.90
31207;DHT22;17834;52.992;8.856;2024-02-21T00:54:45;9.20;99.90
31207;DHT22;17834;52.992;8.856;2024-02-21T00:57:11;9.30;99.90
31207;DHT22;17834;52.992;8.856;2024-02-21T00:59:37;9.30;99.90
31207;DHT22;17834;52.992;8.856;2024-02-21T01:02:03;9.30;99.90
31207;DHT22;17834;52.992;8.856;2024-02-21T01:04:28;9.30;99.90
31207;DHT22;17834;52.992;8.856;2024-02-21T01:06:54;9.30;99.90
31207;DHT22;17834;52.992;8.856;2024-02-21T01:09:19;9.30;99.90
31207;DHT22;17834;52.992;8.856;2024-02-21T01:11:45;9.30;99.90
31207;DHT22;17834;52.992;8.856;2024-02-21T01:14:10;9.20;99.90
31207;DHT22;17834;52.992;8.856;2024-02-21T01:16:36;9.20;99.90
31207;DHT22;17834;52.992;8.856;2024-02-21T01:19:02;9.20;99.90
31207;DHT22;17834;52.992;8.856;2024-02-21T01:21:27;9.30;99.90
31207;DHT22;17834;52.992;8.856;2024-02-21T01:23:53;9.30;99.90
31207;DHT22;17834;52.992;8.856;2024-02-21T01:26:19;9.20;99.90
31207;DHT22;17834;52.992;8.856;2024-02-21T01:28:44;9.20;99.90
31207;DHT22;17834;52.992;8.856;2024-02-21T01:31:10;9.30;99.90
31207;DHT22;17834;52.992;8.856;2024-02-21T01:33:35;9.30;99.90
31207;DHT22;17834;52.992;8.856;2024-02-21T01:36:04;9.30;99.90
31207;DHT22;17834;52.992;8.856;2024-02-21T01:38:32;9.30;99.90
31207;DHT22;17834;52.992;8.856;2024-02-21T01:40:58;9.30;99.90
31207;DHT22;17834;52.992;8.856;2024-02-21T01:43:23;9.30;99.90
31207;DHT22;17834;52.992;8.856;2024-02-21T01:45:51;9.30;99.90
31207;DHT22;17834;52.992;8.856;2024-02-21T01:48:18;9.30;99.90
31207;DHT22;17834;52.992;8.856;2024-02-21T01:50:48;9.30;99.90
31207;DHT22;17834;52.992;8.856;2024-02-21T01:53:18;9.30;99.90
31207;DHT22;17834;52.992;8.856;2024-02-21T01:55:45;9.30;99.90
31207;DHT22;17834;52.992;8.856;2024-02-21T01:58:15;9.30;99.90
31207;DHT22;17834;52.992;8.856;2024-02-21T02:00:45;9.30;99.90
31207;DHT22;17834;52.992;8.856;2024-02-21T02:03:11;9.30;99.90
31207;DHT22;17834;52.992;8.856;2024-02-21T02:05:47;9.30;99.90
31207;DHT22;17834;52.992;8.856;2024-02-21T02:08:14;9.30;99.90
31207;DHT22;17834;52.992;8.856;2024-02-21T02:10:40;9.30;99.90
31207;DHT22;17834;52.992;8.856;2024-02-21T02:13:06;9.30;99.90
31207;DHT22;17834;52.992;8.856;2024-02-21T02:15:45;9.30;99.90
31207;DHT22;17834;52.992;8.856;2024-02-21T02:18:11;9.30;99.90
31207;DHT22;17834;52.992;8.856;2024-02-21T02:20:37;9.20;99.90
31207;DHT22;17834;52.992;8.856;2024-02-21T02:23:07;9.20;99.90
31207;DHT22;17834;52.992;8.856;2024-02-21T02:25:35;9.20;99.90
31207;DHT22;17834;52.992;8.856;2024-02-21T02:28:01;9.20;99.90
31207;DHT22;17834;52.992;8.856;2024-02-21T02:30:27;9.20;99.90
31207;DHT22;17834;52.992;8.856;2024-02-21T02:32:52;9.10;99.90
31207;DHT22;17834;52.992;8.856;2024-02-21T02:35:18;9.20;99.90
31207;DHT22;17834;52.992;8.856;2024-02-21T02:37:50;9.10;99.90
31207;DHT22;17834;52.992;8.856;2024-02-21T02:40:16;9.10;99.90
31207;DHT22;17834;52.992;8.856;2024-02-21T02:42:42;9.10;99.90
31207;DHT22;17834;52.992;8.856;2024-02-21T02:45:07;9.10;99.90
31207;DHT22;17834;52.992;8.856;2024-02-21T02:47:33;9.20;99.90
31207;DHT22;17834;52.992;8.856;2024-02-21T02:50:00;9.20;99.90
31207;DHT22;17834;52.992;8.856;2024-02-21T02:52:25;9.20;99.90
31207;DHT22;17834;52.992;8.856;2024-02-21T02:54:51;9.20;99.90
31207;DHT22;17834;52.992;8.856;2024-02-21T02:57:18;9.20;99.90
31207;DHT22;17834;52.992;8.856;2024-02-21T02:59:52;9.20;99.90
31207;DHT22;17834;52.992;8.856;2024-02-21T03:02:18;9.20;99.90
31207;DHT22;17834;52.992;8.856;2024-02-21T03:04:44;9.20;99.90
31207;DHT22;17834;52.992;8.856;2024-02-21T03:07:10;9.20;99.90
31207;DHT22;17834;52.992;8.856;2024-02-21T03:09:39;9.30;99.90
31207;DHT22;17834;52.992;8.856;2024-02-21T03:12:05;9.20;99.90
31207;DHT22;17834;52.992;8.856;2024-02-21T03:14:32;9.20;99.90
31207;DHT22;17834;52.992;8.856;2024-02-21T03:16:58;9.20;99.90
31207;DHT22;17834;52.992;8.856;2024-02-21T03:19:24;9.20;99.90
31207;DHT22;17834;52.992;8.856;2024-02-21T03:21:50;9.20;99.90
31207;DHT22;17834;52.992;8.856;2024-02-21T03:24:16;9.20;99.90
31207;DHT22;17834;52.992;8.856;2024-02-21T03:26:42;9.20;99.90
31207;DHT22;17834;52.992;8.856;2024-02-21T03:29:08;9.20;99.90
31207;DHT22;17834;52.992;8.856;2024-02-21T03:31:37;9.30;99.90
31207;DHT22;17834;52.992;8.856;2024-02-21T03:34:02;9.30;99.90
31207;DHT22;17834;52.992;8.856;2024-02-21T03:36:28;9.20;99.90
31207;DHT22;17834;52.992;8.856;2024-02-21T03:38:57;9.20;99.90
31207;DHT22;17834;52.992;8.856;2024-02-21T03:41:22;9.30;99.90
31207;DHT22;17834;52.992;8.856;2024-02-21T03:43:48;9.30;99.90
31207;DHT22;17834;52.992;8.856;2024-02-21T03:46:14;9.30;99.90
31207;DHT22;17834;52.992;8.856;2024-02-21T03:48:40;9.30;99.90
31207;DHT22;17834;52.992;8.856;2024-02-21T03:51:05;9.20;99.90
31207;DHT22;17834;52.992;8.856;2024-02-21T03:53:31;9.20;99.90
31207;DHT22;17834;52.992;8.856;2024-02-21T03:55:56;9.20;99.90
31207;DHT22;17834;52.992;8.856;2024-02-21T03:58:25;9.20;99.90
31207;DHT22;17834;52.992;8.856;2024-02-21T04:00:50;9.10;99.90
31207;DHT22;17834;52.992;8.856;2024-02-21T04:03:17;9.10;99.90
31207;DHT22;17834;52.992;8.856;2024-02-21T04:05:42;9.10;99.90
31207;DHT22;17834;52.992;8.856;2024-02-21T04:08:08;9.10;99.90
31207;DHT22;17834;52.992;8.856;2024-02-21T04:10:34;9.10;99.90
31207;DHT22;17834;52.992;8.856;2024-02-21T04:12:59;9.10;99.90
31207;DHT22;17834;52.992;8.856;2024-02-21T04:15:25;9.00;99.90
31207;DHT22;17834;52.992;8.856;2024-02-21T04:17:50;9.00;99.90
31207;DHT22;17834;52.992;8.856;2024-02-21T04:20:16;9.00;99.90
31207;DHT22;17834;52.992;8.856;2024-02-21T04:22:45;9.00;99.90
31207;DHT22;17834;52.992;8.856;2024-02-21T04:25:11;9.00;99.90
31207;DHT22;17834;52.992;8.856;2024-02-21T04:27:39;9.00;99.90
31207;DHT22;17834;52.992;8.856;2024-02-21T04:30:06;9.00;99.90
31207;DHT22;17834;52.992;8.856;2024-02-21T04:32:31;9.00;99.90
31207;DHT22;17834;52.992;8.856;2024-02-21T04:34:57;9.00;99.90
31207;DHT22;17834;52.992;8.856;2024-02-21T04:37:22;8.90;99.90
31207;DHT22;17834;52.992;8.856;2024-02-21T04:39:48;8.90;99.90
31207;DHT22;17834;52.992;8.856;2024-02-21T04:42:14;8.90;99.90
31207;DHT22;17834;52.992;8.856;2024-02-21T04:44:40;8.90;99.90
31207;DHT22;17834;52.992;8.856;2024-02-21T04:47:07;8.80;99.90
31207;DHT22;17834;52.992;8.856;2024-02-21T04:49:32;8.80;99.90
31207;DHT22;17834;52.992;8.856;2024-02-21T04:51:58;8.80;99.90
31207;DHT22;17834;52.992;8.856;2024-02-21T04:54:24;8.80;99.90
31207;DHT22;17834;52.992;8.856;2024-02-21T04:56:49;8.80;99.90
31207;DHT22;17834;52.992;8.856;2024-02-21T04:59:15;8.80;99.90
31207;DHT22;17834;52.992;8.856;2024-02-21T05:01:40;8.70;99.90
31207;DHT22;17834;52.992;8.856;2024-02-21T05:04:06;8.70;99.90
31207;DHT22;17834;52.992;8.856;2024-02-21T05:06:31;8.70;99.90
31207;DHT22;17834;52.992;8.856;2024-02-21T05:08:57;8.70;99.90
31207;DHT22;17834;52.992;8.856;2024-02-21T05:11:24;8.70;99.90
31207;DHT22;17834;52.992;8.856;2024-02-21T05:13:50;8.70;99.90
31207;DHT22;17834;52.992;8.856;2024-02-21T05:16:15;8.70;99.90
31207;DHT22;17834;52.992;8.856;2024-02-21T05:18:41;8.70;99.90
31207;DHT22;17834;52.992;8.856;2024-02-21T05:21:08;8.70;99.90
31207;DHT22;17834;52.992;8.856;2024-02-21T05:23:33;8.70;99.90
31207;DHT22;17834;52.992;8.856;2024-02-21T05:25:59;8.70;99.90
31207;DHT22;17834;52.992;8.856;2024-02-21T05:28:24;8.70;99.90
31207;DHT22;17834;52.992;8.856;2024-02-21T05:30:50;8.70;99.90
31207;DHT22;17834;52.992;8.856;2024-02-21T05:33:15;8.60;99.90
31207;DHT22;17834;52.992;8.856;2024-02-21T05:35:47;8.60;99.90
31207;DHT22;17834;52.992;8.856;2024-02-21T05:38:16;8.70;99.90
31207;DHT22;17834;52.992;8.856;2024-02-21T05:40:42;8.60;99.90
31207;DHT22;17834;52.992;8.856;2024-02-21T05:43:08;8.60;99.90
31207;DHT22;17834;52.992;8.856;2024-02-21T05:45:34;8.60;99.90
31207;DHT22;17834;52.992;8.856;2024-02-21T05:47:59;8.60;99.90
31207;DHT22;17834;52.992;8.856;2024-02-21T05:50:25;8.60;99.90
31207;DHT22;17834;52.992;8.856;2024-02-21T05:52:52;8.60;99.90
31207;DHT22;17834;52.992;8.856;2024-02-21T05:55:18;8.60;99.90
31207;DHT22;17834;52.992;8.856;2024-02-21T05:57:44;8.60;99.90
31207;DHT22;17834;52.992;8.856;2024-02-21T06:00:09;8.60;99.90
31207;DHT22;17834;52.992;8.856;2024-02-21T06:02:35;8.60;99.90
31207;DHT22;17834;52.992;8.856;2024-02-21T06:05:00;8.60;99.90
31207;DHT22;17834;52.992;8.856;2024-02-21T06:07:26;8.60;99.90
31207;DHT22;17834;52.992;8.856;2024-02-21T06:09:51;8.60;99.90
31207;DHT22;17834;52.992;8.856;2024-02-21T06:12:17;8.60;99.90
31207;DHT22;17834;52.992;8.856;2024-02-21T06:14:42;8.70;99.90
31207;DHT22;17834;52.992;8.856;2024-02-21T06:17:08;8.60;99.90
31207;DHT22;17834;52.992;8.856;2024-02-21T06:19:33;8.60;99.90
31207;DHT22;17834;52.992;8.856;2024-02-21T06:21:59;8.60;99.90
31207;DHT22;17834;52.992;8.856;2024-02-21T06:24:24;8.60;99.90
31207;DHT22;17834;52.992;8.856;2024-02-21T06:26:50;8.60;99.90
31207;DHT22;17834;52.992;8.856;2024-02-21T06:29:15;8.60;99.90
31207;DHT22;17834;52.992;8.856;2024-02-21T06:31:41;8.70;99.90
31207;DHT22;17834;52.992;8.856;2024-02-21T06:34:06;8.60;99.90
31207;DHT22;17834;52.992;8.856;2024-02-21T06:36:32;8.60;99.90
31207;DHT22;17834;52.992;8.856;2024-02-21T06:38:58;8.60;99.90
31207;DHT22;17834;52.992;8.856;2024-02-21T06:41:24;8.70;99.90
31207;DHT22;17834;52.992;8.856;2024-02-21T06:43:51;8.70;99.90
31207;DHT22;17834;52.992;8.856;2024-02-21T06:46:27;8.70;99.90
31207;DHT22;17834;52.992;8.856;2024-02-21T06:48:53;8.70;99.90
31207;DHT22;17834;52.992;8.856;2024-02-21T06:51:19;8.70;99.90
31207;DHT22;17834;52.992;8.856;2024-02-21T06:53:44;8.70;99.90
31207;DHT22;17834;52.992;8.856;2024-02-21T06:56:10;8.70;99.90
31207;DHT22;17834;52.992;8.856;2024-02-21T06:58:36;8.70;99.90
31207;DHT22;17834;52.992;8.856;2024-02-21T07:01:01;8.70;99.90
31207;DHT22;17834;52.992;8.856;2024-02-21T07:03:27;8.80;99.90
31207;DHT22;17834;52.992;8.856;2024-02-21T07:05:52;8.80;99.90
31207;DHT22;17834;52.992;8.856;2024-02-21T07:08:18;8.80;99.90
31207;DHT22;17834;52.992;8.856;2024-02-21T07:10:43;8.80;99.90
31207;DHT22;17834;52.992;8.856;2024-02-21T07:13:09;8.80;99.90
31207;DHT22;17834;52.992;8.856;2024-02-21T07:15:34;8.80;99.90
31207;DHT22;17834;52.992;8.856;2024-02-21T07:18:01;8.80;99.90
31207;DHT22;17834;52.992;8.856;2024-02-21T07:20:27;8.90;99.90
31207;DHT22;17834;52.992;8.856;2024-02-21T07:22:52;8.90;99.90
31207;DHT22;17834;52.992;8.856;2024-02-21T07:25:18;8.90;99.90
31207;DHT22;17834;52.992;8.856;2024-02-21T07:27:44;8.90;99.90
31207;DHT22;17834;52.992;8.856;2024-02-21T07:30:10;8.90;99.90
31207;DHT22;17834;52.992;8.856;2024-02-21T07:32:36;9.00;99.90
31207;DHT22;17834;52.992;8.856;2024-02-21T07:35:01;9.00;99.90
31207;DHT22;17834;52.992;8.856;2024-02-21T07:37:27;9.00;99.90
31207;DHT22;17834;52.992;8.856;2024-02-21T07:39:52;9.00;99.90
31207;DHT22;17834;52.992;8.856;2024-02-21T07:42:18;9.10;99.90
31207;DHT22;17834;52.992;8.856;2024-02-21T07:44:43;9.10;99.90
31207;DHT22;17834;52.992;8.856;2024-02-21T07:47:09;9.10;99.90
31207;DHT22;17834;52.992;8.856;2024-02-21T07:49:41;9.10;99.90
31207;DHT22;17834;52.992;8.856;2024-02-21T07:52:07;9.20;99.90
31207;DHT22;17834;52.992;8.856;2024-02-21T07:54:33;9.20;99.90
31207;DHT22;17834;52.992;8.856;2024-02-21T07:56:58;9.10;99.90
31207;DHT22;17834;52.992;8.856;2024-02-21T07:59:24;9.20;99.90
31207;DHT22;17834;52.992;8.856;2024-02-21T08:01:49;9.20;99.90
31207;DHT22;17834;52.992;8.856;2024-02-21T08:04:15;9.20;99.90
31207;DHT22;17834;52.992;8.856;2024-02-21T08:06:40;9.20;99.90
31207;DHT22;17834;52.992;8.856;2024-02-21T08:09:06;9.20;99.90
31207;DHT22;17834;52.992;8.856;2024-02-21T08:11:31;9.30;99.90
31207;DHT22;17834;52.992;8.856;2024-02-21T08:13:57;9.20;99.90
31207;DHT22;17834;52.992;8.856;2024-02-21T08:16:23;9.20;99.90
31207;DHT22;17834;52.992;8.856;2024-02-21T08:18:48;9.30;99.90
31207;DHT22;17834;52.992;8.856;2024-02-21T08:21:14;9.30;99.90
31207;DHT22;17834;52.992;8.856;2024-02-21T08:23:39;9.30;99.90
31207;DHT22;17834;52.992;8.856;2024-02-21T08:26:05;9.30;99.90
31207;DHT22;17834;52.992;8.856;2024-02-21T08:28:31;9.30;99.90
31207;DHT22;17834;52.992;8.856;2024-02-21T08:30:56;9.40;99.90
31207;DHT22;17834;52.992;8.856;2024-02-21T08:33:22;9.40;99.90
31207;DHT22;17834;52.992;8.856;2024-02-21T08:35:51;9.40;99.90
31207;DHT22;17834;52.992;8.856;2024-02-21T08:38:17;9.40;99.90
31207;DHT22;17834;52.992;8.856;2024-02-21T08:40:42;9.50;99.90
31207;DHT22;17834;52.992;8.856;2024-02-21T08:43:08;9.50;99.90
31207;DHT22;17834;52.992;8.856;2024-02-21T08:45:33;9.50;99.90
31207;DHT22;17834;52.992;8.856;2024-02-21T08:47:59;9.60;99.90
31207;DHT22;17834;52.992;8.856;2024-02-21T08:50:24;9.60;99.90
31207;DHT22;17834;52.992;8.856;2024-02-21T08:52:49;9.60;99.90
31207;DHT22;17834;52.992;8.856;2024-02-21T08:55:15;9.70;99.90
31207;DHT22;17834;52.992;8.856;2024-02-21T08:57:40;9.70;99.90
31207;DHT22;17834;52.992;8.856;2024-02-21T09:00:06;9.70;99.90
31207;DHT22;17834;52.992;8.856;2024-02-21T09:02:42;9.70;99.90
31207;DHT22;17834;52.992;8.856;2024-02-21T09:05:10;9.70;99.90
31207;DHT22;17834;52.992;8.856;2024-02-21T09:07:36;9.80;99.90
31207;DHT22;17834;52.992;8.856;2024-02-21T09:10:02;9.80;99.90
31207;DHT22;17834;52.992;8.856;2024-02-21T09:12:28;9.80;99.90
31207;DHT22;17834;52.992;8.856;2024-02-21T09:14:54;9.90;99.90
31207;DHT22;17834;52.992;8.856;2024-02-21T09:17:20;9.90;99.90
31207;DHT22;17834;52.992;8.856;2024-02-21T09:19:46;9.90;99.90
31207;DHT22;17834;52.992;8.856;2024-02-21T09:22:13;10.00;99.90
31207;DHT22;17834;52.992;8.856;2024-02-21T09:24:38;10.00;99.90
31207;DHT22;17834;52.992;8.856;2024-02-21T09:27:04;10.00;99.90
31207;DHT22;17834;52.992;8.856;2024-02-21T09:29:31;10.00;99.90
31207;DHT22;17834;52.992;8.856;2024-02-21T09:31:58;10.00;99.90
31207;DHT22;17834;52.992;8.856;2024-02-21T09:34:24;10.00;99.90
31207;DHT22;17834;52.992;8.856;2024-02-21T09:36:49;10.00;99.90
31207;DHT22;17834;52.992;8.856;2024-02-21T09:39:15;10.00;99.90
31207;DHT22;17834;52.992;8.856;2024-02-21T09:41:48;10.00;99.90
31207;DHT22;17834;52.992;8.856;2024-02-21T09:44:18;10.00;99.90
31207;DHT22;17834;52.992;8.856;2024-02-21T09:47:12;10.10;99.90
31207;DHT22;17834;52.992;8.856;2024-02-21T09:49:44;10.20;99.90
31207;DHT22;17834;52.992;8.856;2024-02-21T09:52:10;10.20;99.90
31207;DHT22;17834;52.992;8.856;2024-02-21T09:54:39;10.20;99.90
31207;DHT22;17834;52.992;8.856;2024-02-21T09:57:08;10.20;99.90
31207;DHT22;17834;52.992;8.856;2024-02-21T09:59:33;10.20;99.90
31207;DHT22;17834;52.992;8.856;2024-02-21T10:01:59;10.20;99.90
31207;DHT22;17834;52.992;8.856;2024-02-21T10:04:28;10.20;99.90
31207;DHT22;17834;52.992;8.856;2024-02-21T10:06:53;10.30;99.90
31207;DHT22;17834;52.992;8.856;2024-02-21T10:09:27;10.30;99.90
31207;DHT22;17834;52.992;8.856;2024-02-21T10:11:54;10.30;99.90
31207;DHT22;17834;52.992;8.856;2024-02-21T10:14:19;10.40;99.90
31207;DHT22;17834;52.992;8.856;2024-02-21T10:16:57;10.50;99.90
31207;DHT22;17834;52.992;8.856;2024-02-21T10:19:26;10.70;99.90
31207;DHT22;17834;52.992;8.856;2024-02-21T10:22:02;10.70;99.90
31207;DHT22;17834;52.992;8.856;2024-02-21T10:24:35;10.80;99.90
31207;DHT22;17834;52.992;8.856;2024-02-21T10:27:07;10.90;99.90
31207;DHT22;17834;52.992;8.856;2024-02-21T10:29:39;10.90;99.90
31207;DHT22;17834;52.992;8.856;2024-02-21T10:32:09;10.90;99.90
31207;DHT22;17834;52.992;8.856;2024-02-21T10:34:36;10.90;99.90
31207;DHT22;17834;52.992;8.856;2024-02-21T10:37:03;10.90;99.90
31207;DHT22;17834;52.992;8.856;2024-02-21T10:39:32;10.90;99.90
31207;DHT22;17834;52.992;8.856;2024-02-21T10:42:00;11.00;99.90
31207;DHT22;17834;52.992;8.856;2024-02-21T10:44:29;11.10;99.90
31207;DHT22;17834;52.992;8.856;2024-02-21T10:46:56;11.20;99.90
31207;DHT22;17834;52.992;8.856;2024-02-21T10:49:23;11.20;99.90
31207;DHT22;17834;52.992;8.856;2024-02-21T10:54:49;11.40;99.90
31207;DHT22;17834;52.992;8.856;2024-02-21T10:57:17;11.60;99.90
31207;DHT22;17834;52.992;8.856;2024-02-21T10:59:45;11.80;99.90
31207;DHT22;17834;52.992;8.856;2024-02-21T11:02:10;12.00;99.90
31207;DHT22;17834;52.992;8.856;2024-02-21T11:04:36;12.20;99.90
31207;DHT22;17834;52.992;8.856;2024-02-21T11:07:06;12.30;99.90
31207;DHT22;17834;52.992;8.856;2024-02-21T11:09:32;12.50;99.90
31207;DHT22;17834;52.992;8.856;2024-02-21T11:11:58;12.60;99.90
31207;DHT22;17834;52.992;8.856;2024-02-21T11:14:27;12.70;99.90
31207;DHT22;17834;52.992;8.856;2024-02-21T11:16:53;12.80;99.90
31207;DHT22;17834;52.992;8.856;2024-02-21T11:19:26;12.80;99.90
31207;DHT22;17834;52.992;8.856;2024-02-21T11:21:52;12.80;99.90
31207;DHT22;17834;52.992;8.856;2024-02-21T11:24:34;12.80;99.90
31207;DHT22;17834;52.992;8.856;2024-02-21T11:29:45;12.80;99.90
31207;DHT22;17834;52.992;8.856;2024-02-21T11:32:14;12.90;99.90
31207;DHT22;17834;52.992;8.856;2024-02-21T11:34:40;12.90;99.90
31207;DHT22;17834;52.992;8.856;2024-02-21T11:37:15;13.00;99.90
31207;DHT22;17834;52.992;8.856;2024-02-21T11:39:41;13.00;99.90
31207;DHT22;17834;52.992;8.856;2024-02-21T11:42:08;12.80;99.90
31207;DHT22;17834;52.992;8.856;2024-02-21T11:44:35;12.70;99.90
31207;DHT22;17834;52.992;8.856;2024-02-21T11:47:03;12.60;99.90
31207;DHT22;17834;52.992;8.856;2024-02-21T11:49:29;12.60;99.90
31207;DHT22;17834;52.992;8.856;2024-02-21T11:52:01;12.60;99.90
31207;DHT22;17834;52.992;8.856;2024-02-21T11:54:29;12.70;99.90
31207;DHT22;17834;52.992;8.856;2024-02-21T11:56:55;12.80;99.90
31207;DHT22;17834;52.992;8.856;2024-02-21T11:59:21;12.90;99.90
31207;DHT22;17834;52.992;8.856;2024-02-21T12:01:48;12.90;99.90
31207;DHT22;17834;52.992;8.856;2024-02-21T12:04:13;12.90;99.90
31207;DHT22;17834;52.992;8.856;2024-02-21T12:06:39;12.90;99.90
31207;DHT22;17834;52.992;8.856;2024-02-21T12:09:08;12.90;99.90
31207;DHT22;17834;52.992;8.856;2024-02-21T12:11:36;12.90;99.90
31207;DHT22;17834;52.992;8.856;2024-02-21T12:14:02;12.90;99.90
31207;DHT22;17834;52.992;8.856;2024-02-21T12:16:38;12.90;99.90
31207;DHT22;17834;52.992;8.856;2024-02-21T12:19:04;12.90;99.90
31207;DHT22;17834;52.992;8.856;2024-02-21T12:21:31;12.90;99.90
31207;DHT22;17834;52.992;8.856;2024-02-21T12:23:58;12.90;99.90
31207;DHT22;17834;52.992;8.856;2024-02-21T12:26:24;12.80;99.90
31207;DHT22;17834;52.992;8.856;2024-02-21T12:28:49;12.80;99.90
31207;DHT22;17834;52.992;8.856;2024-02-21T12:31:15;12.80;99.90
31207;DHT22;17834;52.992;8.856;2024-02-21T12:33:42;12.90;99.90
31207;DHT22;17834;52.992;8.856;2024-02-21T12:36:07;12.90;99.90
31207;DHT22;17834;52.992;8.856;2024-02-21T12:38:34;12.90;99.90
31207;DHT22;17834;52.992;8.856;2024-02-21T12:41:00;12.90;99.90
31207;DHT22;17834;52.992;8.856;2024-02-21T12:43:26;13.00;99.90
31207;DHT22;17834;52.992;8.856;2024-02-21T12:45:51;12.90;99.90
31207;DHT22;17834;52.992;8.856;2024-02-21T12:48:17;12.90;99.90
31207;DHT22;17834;52.992;8.856;2024-02-21T12:50:49;12.90;99.90
31207;DHT22;17834;52.992;8.856;2024-02-21T12:53:16;12.90;99.90
31207;DHT22;17834;52.992;8.856;2024-02-21T12:55:41;12.90;99.90
31207;DHT22;17834;52.992;8.856;2024-02-21T12:58:07;12.90;99.90
31207;DHT22;17834;52.992;8.856;2024-02-21T13:00:33;12.90;99.90
31207;DHT22;17834;52.992;8.856;2024-02-21T13:03:00;13.00;99.90
31207;DHT22;17834;52.992;8.856;2024-02-21T13:05:26;12.90;99.90
31207;DHT22;17834;52.992;8.856;2024-02-21T13:07:52;12.90;99.90
31207;DHT22;17834;52.992;8.856;2024-02-21T13:10:18;12.90;99.90
31207;DHT22;17834;52.992;8.856;2024-02-21T13:12:44;12.90;99.90
31207;DHT22;17834;52.992;8.856;2024-02-21T13:15:09;12.90;99.90
31207;DHT22;17834;52.992;8.856;2024-02-21T13:17:37;12.90;99.90
31207;DHT22;17834;52.992;8.856;2024-02-21T13:20:02;12.90;99.90
31207;DHT22;17834;52.992;8.856;2024-02-21T13:22:28;12.90;99.90
31207;DHT22;17834;52.992;8.856;2024-02-21T13:24:54;12.80;99.90
31207;DHT22;17834;52.992;8.856;2024-02-21T13:27:19;12.80;99.90
31207;DHT22;17834;52.992;8.856;2024-02-21T13:29:45;12.70;99.90
31207;DHT22;17834;52.992;8.856;2024-02-21T13:32:10;12.80;99.90
31207;DHT22;17834;52.992;8.856;2024-02-21T13:34:36;12.80;99.90
31207;DHT22;17834;52.992;8.856;2024-02-21T13:37:01;12.80;99.90
31207;DHT22;17834;52.992;8.856;2024-02-21T13:39:27;12.70;99.90
31207;DHT22;17834;52.992;8.856;2024-02-21T13:41:53;12.80;99.90
31207;DHT22;17834;52.992;8.856;2024-02-21T13:44:18;12.80;99.90
31207;DHT22;17834;52.992;8.856;2024-02-21T13:46:44;12.80;99.90
31207;DHT22;17834;52.992;8.856;2024-02-21T13:49:10;12.70;99.90
31207;DHT22;17834;52.992;8.856;2024-02-21T13:51:35;12.70;99.90
31207;DHT22;17834;52.992;8.856;2024-02-21T13:54:04;12.70;99.90
31207;DHT22;17834;52.992;8.856;2024-02-21T13:56:30;12.70;99.90
31207;DHT22;17834;52.992;8.856;2024-02-21T13:58:57;12.60;99.90
31207;DHT22;17834;52.992;8.856;2024-02-21T14:01:23;12.60;99.90
31207;DHT22;17834;52.992;8.856;2024-02-21T14:03:48;12.50;99.90
31207;DHT22;17834;52.992;8.856;2024-02-21T14:06:14;12.40;99.90
31207;DHT22;17834;52.992;8.856;2024-02-21T14:08:39;12.30;99.90
31207;DHT22;17834;52.992;8.856;2024-02-21T14:11:06;12.30;99.90
31207;DHT22;17834;52.992;8.856;2024-02-21T14:13:32;12.30;99.90
31207;DHT22;17834;52.992;8.856;2024-02-21T14:15:57;12.20;99.90
31207;DHT22;17834;52.992;8.856;2024-02-21T14:18:23;12.20;99.90
31207;DHT22;17834;52.992;8.856;2024-02-21T14:20:48;12.20;99.90
31207;DHT22;17834;52.992;8.856;2024-02-21T14:23:14;12.20;99.90
31207;DHT22;17834;52.992;8.856;2024-02-21T14:25:40;12.20;99.90
31207;DHT22;17834;52.992;8.856;2024-02-21T14:28:07;12.20;99.90
31207;DHT22;17834;52.992;8.856;2024-02-21T14:30:34;12.20;99.90
31207;DHT22;17834;52.992;8.856;2024-02-21T14:33:00;12.20;99.90
31207;DHT22;17834;52.992;8.856;2024-02-21T14:35:25;12.20;99.90
31207;DHT22;17834;52.992;8.856;2024-02-21T14:37:51;12.10;99.90
31207;DHT22;17834;52.992;8.856;2024-02-21T14:40:18;12.10;99.90
31207;DHT22;17834;52.992;8.856;2024-02-21T14:42:44;12.00;99.90
31207;DHT22;17834;52.992;8.856;2024-02-21T14:45:10;12.00;99.90
31207;DHT22;17834;52.992;8.856;2024-02-21T14:47:35;11.90;99.90
31207;DHT22;17834;52.992;8.856;2024-02-21T14:50:02;11.90;99.90
31207;DHT22;17834;52.992;8.856;2024-02-21T14:52:29;11.90;99.90
31207;DHT22;17834;52.992;8.856;2024-02-21T14:54:54;11.80;99.90
31207;DHT22;17834;52.992;8.856;2024-02-21T14:57:21;11.80;99.90
31207;DHT22;17834;52.992;8.856;2024-02-21T14:59:47;11.70;99.90
31207;DHT22;17834;52.992;8.856;2024-02-21T15:02:15;11.70;99.90
31207;DHT22;17834;52.992;8.856;2024-02-21T15:04:40;11.60;99.90
31207;DHT22;17834;52.992;8.856;2024-02-21T15:07:06;11.60;99.90
31207;DHT22;17834;52.992;8.856;2024-02-21T15:09:32;11.50;99.90
31207;DHT22;17834;52.992;8.856;2024-02-21T15:11:57;11.40;99.90
31207;DHT22;17834;52.992;8.856;2024-02-21T15:14:24;11.30;99.90
31207;DHT22;17834;52.992;8.856;2024-02-21T15:16:49;11.30;99.90
31207;DHT22;17834;52.992;8.856;2024-02-21T15:19:15;11.10;99.90
31207;DHT22;17834;52.992;8.856;2024-02-21T15:21:40;11.10;99.90
31207;DHT22;17834;52.992;8.856;2024-02-21T15:24:06;11.00;99.90
31207;DHT22;17834;52.992;8.856;2024-02-21T15:26:31;11.00;99.90
31207;DHT22;17834;52.992;8.856;2024-02-21T15:28:57;11.00;99.90
31207;DHT22;17834;52.992;8.856;2024-02-21T15:31:23;10.90;99.90
31207;DHT22;17834;52.992;8.856;2024-02-21T15:33:50;10.90;99.90
31207;DHT22;17834;52.992;8.856;2024-02-21T15:36:15;10.80;99.90
31207;DHT22;17834;52.992;8.856;2024-02-21T15:38:41;10.80;99.90
31207;DHT22;17834;52.992;8.856;2024-02-21T15:41:06;10.70;99.90